TimeMDT,TemperatureF,Dew PointF,Humidity,Sea Level PressureIn,VisibilityMPH,Wind Direction,Wind SpeedMPH,Gust SpeedMPH,PrecipitationIn,Events,Conditions,WindDirDegrees,DateUTC
12:53 AM,35.1,28.0,76,29.90,10.0,SSE,3.5,-,N/A,,Overcast,150,2012-10-24 06:53:00
1:53 AM,35.1,28.0,76,29.88,10.0,SE,6.9,-,N/A,,Overcast,130,2012-10-24 07:53:00
2:53 AM,35.1,28.0,76,29.88,10.0,Calm,Calm,-,N/A,,Overcast,0,2012-10-24 08:53:00
3:53 AM,34.0,28.9,82,29.90,10.0,Calm,Calm,-,N/A,,Overcast,0,2012-10-24 09:53:00
4:53 AM,35.1,28.9,78,29.91,10.0,South,3.5,-,N/A,,Overcast,180,2012-10-24 10:53:00
5:53 AM,35.1,27.0,72,29.92,10.0,South,11.5,-,N/A,,Overcast,180,2012-10-24 11:53:00
6:53 AM,35.1,27.0,72,29.93,10.0,South,8.1,-,N/A,,Overcast,190,2012-10-24 12:53:00
7:53 AM,34.0,26.1,73,29.92,10.0,SSE,11.5,-,N/A,,Overcast,150,2012-10-24 13:53:00
8:53 AM,35.1,28.0,76,29.94,10.0,ESE,6.9,-,N/A,,Overcast,110,2012-10-24 14:53:00
9:53 AM,36.0,28.0,73,29.93,10.0,SE,9.2,-,N/A,,Overcast,130,2012-10-24 15:53:00
10:53 AM,37.0,27.0,67,29.94,10.0,East,5.8,-,N/A,,Overcast,80,2012-10-24 16:53:00
11:20 AM,35.6,26.6,70,29.93,1.2,North,8.1,-,0.00,Snow,Light Snow,10,2012-10-24 17:20:00
11:28 AM,33.8,24.8,70,29.93,0.8,NW,12.7,16.1,0.02,Snow,Light Snow,320,2012-10-24 17:28:00
11:41 AM,30.2,24.8,80,29.94,0.8,NNW,4.6,-,0.04,Snow,Light Snow,330,2012-10-24 17:41:00
11:46 AM,30.2,24.8,80,29.94,1.0,Calm,Calm,-,0.04,Snow,Light Snow,0,2012-10-24 17:46:00
11:53 AM,32.0,26.1,79,29.97,1.5,SW,3.5,-,0.04,Snow,Light Snow,220,2012-10-24 17:53:00
12:06 PM,30.2,26.6,86,29.94,2.0,SW,5.8,-,0.00,Snow,Light Snow,220,2012-10-24 18:06:00
12:15 PM,32.0,26.6,80,29.94,8.0,SSW,4.6,-,0.00,,Overcast,210,2012-10-24 18:15:00
12:53 PM,35.1,24.1,64,29.96,10.0,North,10.4,-,0.00,,Overcast,350,2012-10-24 18:53:00
1:53 PM,36.0,21.9,57,29.94,10.0,NNW,9.2,-,N/A,,Overcast,340,2012-10-24 19:53:00
2:53 PM,35.1,24.1,64,29.96,6.0,West,5.8,-,0.00,Snow,Light Snow,280,2012-10-24 20:53:00
3:17 PM,33.8,26.6,75,29.95,4.0,North,4.6,-,0.00,Snow,Light Snow,350,2012-10-24 21:17:00
3:42 PM,33.8,26.6,75,29.95,6.0,Calm,Calm,-,0.00,,Haze,0,2012-10-24 21:42:00
3:53 PM,35.1,26.1,70,29.99,10.0,SSE,3.5,-,0.00,,Overcast,160,2012-10-24 21:53:00
4:53 PM,35.1,26.1,70,30.00,10.0,SE,9.2,-,N/A,,Overcast,140,2012-10-24 22:53:00
5:53 PM,32.0,26.1,79,30.02,10.0,SE,6.9,-,N/A,,Clear,130,2012-10-24 23:53:00
6:53 PM,32.0,21.0,64,30.04,10.0,SSW,4.6,-,N/A,,Clear,200,2012-10-25 00:53:00
7:53 PM,30.0,21.9,72,30.08,10.0,SW,5.8,-,N/A,,Clear,230,2012-10-25 01:53:00
8:53 PM,28.9,19.9,69,30.10,10.0,SSW,3.5,-,N/A,,Partly Cloudy,210,2012-10-25 02:53:00
9:53 PM,30.0,19.0,64,30.09,10.0,SSE,4.6,-,N/A,,Partly Cloudy,160,2012-10-25 03:53:00
10:53 PM,28.9,19.9,69,30.11,10.0,Calm,Calm,-,N/A,,Mostly Cloudy,0,2012-10-25 04:53:00
11:53 PM,25.0,21.0,85,30.15,10.0,SSE,3.5,-,N/A,,Partly Cloudy,150,2012-10-25 05:53:00